Time;durP1;ratioP1;P1;durP2;ratioP2;P2;SDS_P1;SDS_P2;PMS_P1;PMS_P2;Temp;Humidity;BMP_temperature;BMP_pressure;BME280_temperature;BME280_humidity;BME280_pressure;Samples;Min_cycle;Max_cycle;Signal;HPM_P1;HPM_P2
2022/10/28 04:00:52;;;;;;;8.07;5.50;;;15.00;99.90;;;;;;5769672;23;20485;-67
2022/10/28 04:03:21;;;;;;;11.27;6.40;;;15.00;99.90;;;;;;4983113;28;20454;-68
2022/10/28 04:05:48;;;;;;;10.93;5.30;;;15.00;99.90;;;;;;4982166;28;20451;-68
2022/10/28 04:08:15;;;;;;;9.70;5.00;;;15.00;99.90;;;;;;4982142;28;20827;-68
2022/10/28 04:10:43;;;;;;;9.00;5.57;;;14.90;99.90;;;;;;4982716;28;20537;-68
2022/10/28 04:13:09;;;;;;;10.73;5.57;;;15.00;99.90;;;;;;4982314;28;20509;-68
2022/10/28 04:15:36;;;;;;;9.67;5.13;;;15.00;99.90;;;;;;4981669;28;20475;-68
2022/10/28 04:18:05;;;;;;;7.53;4.70;;;14.90;99.90;;;;;;4977998;28;20458;-69
2022/10/28 04:20:32;;;;;;;9.10;4.90;;;14.90;99.90;;;;;;4976334;28;20474;-69
2022/10/28 04:22:58;;;;;;;8.50;5.77;;;14.90;99.90;;;;;;4976588;28;20454;-69
2022/10/28 04:25:27;;;;;;;9.30;5.30;;;14.90;99.90;;;;;;4976291;28;20510;-69
2022/10/28 04:27:54;;;;;;;9.17;5.53;;;14.90;99.90;;;;;;4975861;28;20493;-68
2022/10/28 04:30:20;;;;;;;6.53;5.40;;;14.90;99.90;;;;;;4976290;28;20455;-68
2022/10/28 04:32:47;;;;;;;8.43;5.80;;;14.80;99.90;;;;;;4975794;28;20513;-68
2022/10/28 04:35:15;;;;;;;10.60;5.20;;;14.80;99.90;;;;;;4975048;28;20990;-68
2022/10/28 04:37:42;;;;;;;8.77;5.23;;;14.70;99.90;;;;;;4975676;28;20465;-68
2022/10/28 04:40:10;;;;;;;10.40;5.50;;;14.70;99.90;;;;;;4975417;28;20489;-67
2022/10/28 04:42:36;;;;;;;6.50;5.17;;;14.60;99.90;;;;;;4975645;28;20443;-68
2022/10/28 04:45:03;;;;;;;6.93;5.20;;;14.60;99.90;;;;;;4975154;28;20455;-68
2022/10/28 04:47:30;;;;;;;10.50;5.13;;;14.60;99.90;;;;;;4975071;28;20462;-69
2022/10/28 04:49:57;;;;;;;15.60;5.27;;;14.60;99.90;;;;;;4975280;28;20529;-67
2022/10/28 04:52:25;;;;;;;9.47;5.50;;;14.50;99.90;;;;;;4975166;28;20478;-68
2022/10/28 04:54:52;;;;;;;11.77;5.50;;;14.50;99.90;;;;;;4974815;28;20794;-68
2022/10/28 04:57:19;;;;;;;8.63;5.30;;;14.50;99.90;;;;;;4974872;28;21001;-68
2022/10/28 04:59:46;;;;;;;8.00;5.90;;;14.60;99.90;;;;;;4975252;28;20862;-68
2022/10/28 05:02:12;;;;;;;10.03;5.20;;;14.70;99.90;;;;;;4974876;28;20487;-68
2022/10/28 05:04:39;;;;;;;7.70;5.33;;;14.70;99.90;;;;;;4974935;28;20935;-68
2022/10/28 05:07:06;;;;;;;8.80;5.70;;;14.80;99.90;;;;;;4974854;28;20942;-67
2022/10/28 05:09:34;;;;;;;7.37;5.30;;;14.80;99.90;;;;;;4975089;28;20942;-68
2022/10/28 05:12:00;;;;;;;17.30;6.63;;;14.80;99.90;;;;;;4975473;28;20529;-68
2022/10/28 05:14:27;;;;;;;9.30;6.43;;;14.80;99.90;;;;;;4975441;28;20462;-68
2022/10/28 05:16:54;;;;;;;10.57;6.00;;;14.70;99.90;;;;;;4975255;28;20478;-68
2022/10/28 05:19:20;;;;;;;7.10;6.30;;;14.70;99.90;;;;;;4975713;28;20454;-68
2022/10/28 05:21:47;;;;;;;14.20;7.53;;;14.70;99.90;;;;;;4978551;28;20478;-70
2022/10/28 05:24:17;;;;;;;8.23;5.57;;;14.70;99.90;;;;;;4980310;28;20513;-68
2022/10/28 05:26:45;;;;;;;8.60;6.40;;;14.70;99.90;;;;;;4979002;28;20839;-68
2022/10/28 05:29:11;;;;;;;6.90;6.10;;;14.70;99.90;;;;;;4979027;28;20450;-68
2022/10/28 05:31:38;;;;;;;12.83;6.80;;;14.70;99.90;;;;;;4978949;28;20478;-68
2022/10/28 05:34:05;;;;;;;11.87;6.73;;;14.70;99.90;;;;;;4979309;28;20482;-68
2022/10/28 05:36:31;;;;;;;15.37;7.00;;;14.70;99.90;;;;;;4978945;28;20479;-68
2022/10/28 05:38:58;;;;;;;8.43;6.70;;;14.60;99.90;;;;;;4978517;28;20454;-68
2022/10/28 05:41:25;;;;;;;11.73;7.10;;;14.60;99.90;;;;;;4978125;28;20478;-68
2022/10/28 05:43:53;;;;;;;11.60;7.60;;;14.50;99.90;;;;;;4978334;28;20513;-68
2022/10/28 05:46:21;;;;;;;14.03;7.70;;;14.50;99.90;;;;;;4978324;28;20524;-68
2022/10/28 05:48:47;;;;;;;16.47;6.93;;;14.50;99.90;;;;;;4978354;28;20455;-68
2022/10/28 05:51:14;;;;;;;9.43;8.07;;;14.50;99.90;;;;;;4978094;28;20482;-69
2022/10/28 05:53:42;;;;;;;8.90;7.33;;;14.50;99.90;;;;;;4978272;28;20455;-68
2022/10/28 05:56:11;;;;;;;12.77;7.30;;;14.50;99.90;;;;;;4978077;28;20478;-68
2022/10/28 05:58:37;;;;;;;10.50;7.43;;;14.50;99.90;;;;;;4978084;28;20461;-68
2022/10/28 06:01:08;;;;;;;11.57;7.60;;;14.50;99.90;;;;;;4977956;28;20537;-68
2022/10/28 06:03:35;;;;;;;11.43;7.30;;;14.50;99.90;;;;;;4978141;28;20462;-68
2022/10/28 06:06:02;;;;;;;11.37;7.27;;;14.50;99.90;;;;;;4978080;28;20450;-70
2022/10/28 06:08:29;;;;;;;12.30;7.20;;;14.40;99.90;;;;;;4977945;28;20450;-68
2022/10/28 06:10:56;;;;;;;11.30;7.00;;;14.50;99.90;;;;;;4978722;28;20475;-69
2022/10/28 06:13:23;;;;;;;14.27;7.57;;;14.40;99.90;;;;;;4977656;28;20459;-69
2022/10/28 06:15:53;;;;;;;10.70;6.80;;;14.40;99.90;;;;;;4978003;28;20466;-69
2022/10/28 06:18:21;;;;;;;11.33;7.23;;;14.40;99.90;;;;;;4978242;28;20458;-69
2022/10/28 06:20:52;;;;;;;9.47;7.60;;;14.40;99.90;;;;;;4977618;28;20486;-69
2022/10/28 06:23:19;;;;;;;11.73;7.93;;;14.40;99.90;;;;;;4977733;28;20531;-69
2022/10/28 06:25:46;;;;;;;15.03;7.20;;;14.40;99.90;;;;;;4977535;28;20450;-69
2022/10/28 06:28:12;;;;;;;8.20;6.57;;;14.40;99.90;;;;;;4977661;28;20533;-69
2022/10/28 06:30:39;;;;;;;14.47;8.17;;;14.50;99.90;;;;;;4977582;28;20478;-69
2022/10/28 06:33:06;;;;;;;15.97;7.60;;;14.50;99.90;;;;;;4977393;28;20458;-69
2022/10/28 06:35:34;;;;;;;13.23;6.87;;;14.50;99.90;;;;;;4977631;28;20486;-69
2022/10/28 06:38:00;;;;;;;13.40;6.73;;;14.50;99.90;;;;;;4977647;28;20458;-69
2022/10/28 06:40:28;;;;;;;7.87;6.73;;;14.60;99.90;;;;;;4977328;28;20455;-69
2022/10/28 06:42:59;;;;;;;9.40;7.03;;;14.60;99.90;;;;;;4977623;28;20455;-69
2022/10/28 06:45:26;;;;;;;12.20;6.53;;;14.70;99.90;;;;;;4977936;28;20850;-69
2022/10/28 06:47:55;;;;;;;9.70;7.07;;;14.60;99.90;;;;;;4977505;28;20692;-69
2022/10/28 06:50:22;;;;;;;13.27;7.70;;;14.60;99.90;;;;;;4977051;28;20545;-69
2022/10/28 06:52:50;;;;;;;10.33;6.37;;;14.60;99.90;;;;;;4977529;28;20828;-69
2022/10/28 06:55:17;;;;;;;12.17;6.83;;;14.60;99.90;;;;;;4977548;28;20454;-69
2022/10/28 06:57:44;;;;;;;14.77;7.37;;;14.70;99.90;;;;;;4977215;28;20510;-69
2022/10/28 07:00:12;;;;;;;8.90;7.00;;;14.70;99.90;;;;;;4977191;28;20505;-69
2022/10/28 07:02:38;;;;;;;8.13;6.10;;;14.70;99.90;;;;;;4976872;28;20926;-69
2022/10/28 07:05:06;;;;;;;11.47;6.00;;;14.80;99.90;;;;;;4976971;28;20869;-69
2022/10/28 07:07:33;;;;;;;13.73;6.70;;;14.90;99.90;;;;;;4977078;28;20501;-69
2022/10/28 07:10:01;;;;;;;9.67;6.40;;;15.00;99.90;;;;;;4976943;28;20466;-69
2022/10/28 07:12:27;;;;;;;11.30;6.80;;;15.10;99.90;;;;;;4976909;28;20474;-70
2022/10/28 07:14:54;;;;;;;8.20;5.80;;;15.20;99.90;;;;;;4976816;28;20458;-70
2022/10/28 07:17:21;;;;;;;9.27;6.40;;;15.30;99.90;;;;;;4976379;28;21064;-69
2022/10/28 07:19:47;;;;;;;12.90;7.00;;;15.40;99.90;;;;;;4976768;28;20459;-69
2022/10/28 07:22:14;;;;;;;13.03;6.73;;;15.60;99.90;;;;;;4977570;28;20872;-69
2022/10/28 07:24:41;;;;;;;12.17;7.00;;;15.70;99.90;;;;;;4976765;28;20459;-69
2022/10/28 07:27:09;;;;;;;10.80;6.00;;;15.80;99.90;;;;;;4976511;28;20451;-68
2022/10/28 07:29:36;;;;;;;8.97;6.27;;;15.90;99.90;;;;;;4976554;28;20454;-69
2022/10/28 07:32:03;;;;;;;11.80;6.20;;;15.90;99.90;;;;;;4976378;28;20475;-68
2022/10/28 07:34:30;;;;;;;12.50;6.07;;;16.10;99.90;;;;;;4976149;28;20458;-68
2022/10/28 07:36:56;;;;;;;10.67;6.50;;;16.30;99.90;;;;;;4976345;28;20502;-68
2022/10/28 07:39:23;;;;;;;9.30;5.77;;;16.50;99.90;;;;;;4976272;28;20507;-69
2022/10/28 07:41:50;;;;;;;9.00;5.57;;;16.80;99.90;;;;;;4976191;28;20474;-68
2022/10/28 07:44:18;;;;;;;8.00;5.63;;;17.00;99.90;;;;;;4975410;28;20466;-68
2022/10/28 07:46:45;;;;;;;17.63;5.80;;;17.50;99.90;;;;;;4976550;28;20458;-68
2022/10/28 07:49:11;;;;;;;10.33;5.90;;;18.00;99.90;;;;;;4976392;28;20514;-68
2022/10/28 07:51:38;;;;;;;10.63;5.23;;;18.30;99.90;;;;;;4976120;28;20530;-68
2022/10/28 07:54:05;;;;;;;10.20;5.47;;;18.20;99.90;;;;;;4976048;28;20465;-69
2022/10/28 07:56:31;;;;;;;8.90;5.40;;;18.00;99.90;;;;;;4976310;28;20474;-68
2022/10/28 07:59:00;;;;;;;8.97;5.53;;;17.90;99.90;;;;;;4976340;28;20455;-68
2022/10/28 08:01:28;;;;;;;11.03;5.30;;;17.80;99.90;;;;;;4975929;28;20513;-68
2022/10/28 08:03:55;;;;;;;7.53;5.30;;;17.70;99.90;;;;;;4975974;28;20451;-68
2022/10/28 08:06:21;;;;;;;17.43;7.57;;;17.60;99.90;;;;;;4976376;28;20498;-68
2022/10/28 08:08:52;;;;;;;11.67;8.60;;;17.50;99.90;;;;;;4976255;28;20462;-68
2022/10/28 08:11:22;;;;;;;13.20;7.33;;;17.40;99.90;;;;;;4976024;28;20525;-68
2022/10/28 08:13:49;;;;;;;12.70;10.27;;;17.30;99.90;;;;;;4976087;28;20821;-68
2022/10/28 08:16:16;;;;;;;10.83;8.17;;;17.30;99.90;;;;;;4975896;28;21003;-69
2022/10/28 08:18:45;;;;;;;11.43;7.10;;;17.20;99.90;;;;;;4975962;28;20513;-68
2022/10/28 08:21:12;;;;;;;12.00;7.77;;;17.20;99.90;;;;;;4975763;28;21033;-68
2022/10/28 08:23:40;;;;;;;9.80;5.90;;;17.10;99.90;;;;;;4975992;28;20454;-68
2022/10/28 08:26:07;;;;;;;15.50;11.50;;;17.10;99.90;;;;;;4976189;28;20537;-68
2022/10/28 08:28:34;;;;;;;9.60;6.83;;;17.20;99.90;;;;;;4975933;28;20866;-68
2022/10/28 08:31:02;;;;;;;8.07;5.43;;;17.30;99.90;;;;;;4975606;28;20474;-68
2022/10/28 08:33:30;;;;;;;10.57;5.37;;;17.40;99.90;;;;;;4975701;28;20455;-68
2022/10/28 08:35:58;;;;;;;7.50;5.70;;;17.60;99.90;;;;;;4975079;28;20458;-68
2022/10/28 08:38:25;;;;;;;15.83;9.50;;;17.60;99.90;;;;;;4975195;28;20942;-68
2022/10/28 08:41:02;;;;;;;11.83;6.20;;;17.70;99.90;;;;;;4975451;28;20482;-68
2022/10/28 08:43:42;;;;;;;13.57;6.20;;;17.70;99.90;;;;;;4975446;28;20439;-68
2022/10/28 08:46:17;;;;;;;11.03;6.73;;;17.70;99.90;;;;;;4975356;28;20488;-67
2022/10/28 08:48:43;;;;;;;13.60;7.57;;;17.70;99.90;;;;;;4975262;28;20478;-69
2022/10/28 08:51:16;;;;;;;8.87;5.93;;;17.60;99.90;;;;;;4975116;28;20478;-68
2022/10/28 08:53:47;;;;;;;8.33;4.80;;;17.70;99.90;;;;;;4975258;28;20443;-69
2022/10/28 08:56:24;;;;;;;13.43;4.90;;;17.80;99.90;;;;;;4974701;28;20466;-69
2022/10/28 08:58:55;;;;;;;7.70;4.33;;;17.90;99.90;;;;;;4974982;28;20902;-68
2022/10/28 09:01:39;;;;;;;5.83;4.00;;;18.10;99.90;;;;;;4974895;28;20494;-67
2022/10/28 09:04:14;;;;;;;7.50;4.60;;;18.30;99.90;;;;;;4975212;28;20442;-67
2022/10/28 09:06:42;;;;;;;7.80;4.63;;;18.70;99.90;;;;;;4975598;28;20438;-67
2022/10/28 09:09:17;;;;;;;10.03;5.77;;;19.10;99.90;;;;;;4975016;28;20458;-67
2022/10/28 09:11:54;;;;;;;6.67;4.30;;;19.50;99.90;;;;;;4975106;28;20537;-67
2022/10/28 09:14:36;;;;;;;10.80;4.97;;;20.00;99.90;;;;;;4975746;28;20443;-67
2022/10/28 09:17:16;;;;;;;9.13;4.13;;;20.50;99.90;;;;;;4975284;28;20467;-67
2022/10/28 09:19:48;;;;;;;6.50;4.80;;;20.70;99.90;;;;;;4975024;28;20838;-68
2022/10/28 09:22:25;;;;;;;12.73;5.20;;;20.80;99.90;;;;;;4975279;28;20475;-69
2022/10/28 09:24:54;;;;;;;7.40;4.80;;;20.90;99.90;;;;;;4975885;28;20446;-69
2022/10/28 09:27:43;;;;;;;9.57;5.10;;;20.90;99.90;;;;;;4975122;28;20450;-69
2022/10/28 09:30:25;;;;;;;13.50;5.83;;;20.90;99.90;;;;;;4975097;28;20813;-69
2022/10/28 09:32:58;;;;;;;10.67;4.77;;;20.70;99.90;;;;;;4975050;28;20439;-69
2022/10/28 09:35:30;;;;;;;11.60;4.80;;;20.60;99.90;;;;;;4975070;28;20443;-69
2022/10/28 09:38:07;;;;;;;7.97;5.17;;;20.50;99.90;;;;;;4975216;28;20466;-69
2022/10/28 09:40:36;;;;;;;10.57;4.77;;;20.30;99.90;;;;;;4974922;28;20993;-69
2022/10/28 09:43:09;;;;;;;25.80;12.80;;;20.00;99.90;;;;;;4974993;28;20450;-68
2022/10/28 09:45:41;;;;;;;9.93;5.47;;;19.90;99.90;;;;;;4975199;28;20443;-69
2022/10/28 09:48:15;;;;;;;10.73;5.67;;;19.80;99.90;;;;;;4975202;28;20538;-69
2022/10/28 09:50:43;;;;;;;5.50;4.50;;;19.90;99.90;;;;;;4974880;28;20532;-69
2022/10/28 09:53:17;;;;;;;12.13;6.00;;;19.90;99.90;;;;;;4974836;28;20487;-69
2022/10/28 09:55:44;;;;;;;13.80;7.07;;;20.10;99.90;;;;;;4974733;28;20439;-69
2022/10/28 09:58:13;;;;;;;8.27;5.37;;;20.30;99.90;;;;;;4974368;28;20486;-69
2022/10/28 10:00:40;;;;;;;8.53;4.70;;;20.60;99.90;;;;;;4974454;28;20545;-68
2022/10/28 10:03:06;;;;;;;11.90;6.53;;;21.00;99.90;;;;;;4974777;28;20442;-69
2022/10/28 10:05:39;;;;;;;11.70;5.40;;;21.50;99.90;;;;;;4974679;28;20505;-69
2022/10/28 10:08:06;;;;;;;9.50;5.13;;;21.70;99.90;;;;;;4976890;28;20532;-69
2022/10/28 10:10:44;;;;;;;13.43;5.60;;;21.90;99.90;;;;;;4978059;28;20454;-69
2022/10/28 10:13:13;;;;;;;9.50;5.03;;;22.30;99.90;;;;;;4977903;28;20494;-69
2022/10/28 10:15:44;;;;;;;4.90;3.90;;;22.60;99.90;;;;;;4977857;28;20513;-69
2022/10/28 10:18:17;;;;;;;10.43;4.20;;;22.90;99.90;;;;;;4977899;28;20463;-69
2022/10/28 10:20:49;;;;;;;8.37;3.60;;;23.50;99.90;;;;;;4977811;28;20481;-69
2022/10/28 10:23:23;;;;;;;9.57;5.07;;;23.80;99.90;;;;;;4977844;28;20447;-69
2022/10/28 10:25:57;;;;;;;10.23;4.77;;;23.80;99.90;;;;;;4977939;28;20458;-69
2022/10/28 10:28:26;;;;;;;9.90;5.17;;;23.80;99.90;;;;;;4978024;28;20441;-69
2022/10/28 10:30:54;;;;;;;8.17;4.87;;;23.70;99.90;;;;;;4977954;28;20529;-69
2022/10/28 10:33:24;;;;;;;7.83;5.30;;;23.50;99.90;;;;;;4977669;28;20459;-69
2022/10/28 10:35:57;;;;;;;8.10;4.00;;;23.30;99.90;;;;;;4977860;28;20461;-69
2022/10/28 10:38:25;;;;;;;9.73;4.60;;;23.00;99.90;;;;;;4977512;28;20470;-68
2022/10/28 10:40:53;;;;;;;18.90;4.33;;;22.70;99.90;;;;;;4977560;28;20479;-69
2022/10/28 10:43:23;;;;;;;13.60;4.77;;;22.50;99.90;;;;;;4977580;28;20465;-69
2022/10/28 10:46:00;;;;;;;11.57;4.57;;;22.30;99.90;;;;;;4977599;28;20445;-69
2022/10/28 10:48:27;;;;;;;7.43;3.63;;;22.10;99.90;;;;;;4977375;28;20439;-68
2022/10/28 10:50:55;;;;;;;11.50;4.13;;;22.00;99.90;;;;;;4977350;28;20482;-68
2022/10/28 10:53:24;;;;;;;9.73;4.43;;;21.90;99.90;;;;;;4977492;28;20454;-69
2022/10/28 10:55:55;;;;;;;6.80;4.00;;;21.80;99.90;;;;;;4977366;28;20533;-69
2022/10/28 10:58:25;;;;;;;5.70;4.60;;;21.80;99.90;;;;;;4978153;28;20463;-69
2022/10/28 11:00:54;;;;;;;7.27;3.63;;;21.90;99.90;;;;;;4976863;28;20994;-69
2022/10/28 11:03:24;;;;;;;8.83;4.47;;;21.90;99.90;;;;;;4977080;28;20454;-69
2022/10/28 11:05:54;;;;;;;13.30;4.97;;;21.90;99.90;;;;;;4976849;28;21005;-69
2022/10/28 11:08:37;;;;;;;7.47;4.53;;;21.90;99.90;;;;;;4977537;28;20494;-70
2022/10/28 11:11:10;;;;;;;10.97;5.50;;;21.90;99.90;;;;;;4977048;28;20484;-69
2022/10/28 11:13:39;;;;;;;9.13;5.30;;;22.00;99.90;;;;;;4977439;28;20443;-69
2022/10/28 11:16:16;;;;;;;6.03;4.50;;;22.00;99.90;;;;;;4976995;28;20463;-69
2022/10/28 11:18:44;;;;;;;7.63;4.50;;;22.00;99.90;;;;;;4976050;28;20471;-69
2022/10/28 11:21:31;;;;;;;9.70;5.13;;;22.10;99.90;;;;;;4977291;28;20500;-69
2022/10/28 11:24:13;;;;;;;13.00;5.33;;;22.00;99.90;;;;;;4977717;28;20442;-69
2022/10/28 11:26:44;;;;;;;8.60;4.50;;;22.00;99.90;;;;;;4977775;28;20851;-68
2022/10/28 11:29:14;;;;;;;13.03;5.97;;;22.00;99.90;;;;;;4977518;28;20443;-69
2022/10/28 11:31:53;;;;;;;14.17;6.80;;;21.90;99.90;;;;;;4977427;28;20874;-69
2022/10/28 11:34:56;;;;;;;14.40;6.70;;;21.90;99.90;;;;;;4977370;28;20439;-69
2022/10/28 11:37:34;;;;;;;6.40;4.67;;;21.90;99.90;;;;;;4946968;28;20478;-69
2022/10/28 11:40:13;;;;;;;7.07;4.70;;;21.90;99.90;;;;;;4976499;28;20509;-69
2022/10/28 11:42:48;;;;;;;5.93;4.90;;;21.90;99.90;;;;;;4977031;28;20442;-69
2022/10/28 11:45:23;;;;;;;7.53;4.10;;;21.90;99.90;;;;;;4976499;28;20446;-69
2022/10/28 11:48:05;;;;;;;5.20;4.10;;;22.00;99.90;;;;;;4976412;28;20439;-69
2022/10/28 11:50:45;;;;;;;6.10;3.83;;;22.00;99.90;;;;;;4976580;28;20449;-69
2022/10/28 11:53:37;;;;;;;5.93;4.30;;;21.90;99.90;;;;;;4976090;28;20933;-69
2022/10/28 11:56:12;;;;;;;12.10;3.90;;;21.90;99.90;;;;;;4976405;28;20428;-69
2022/10/28 11:58:47;;;;;;;7.93;4.13;;;21.80;99.90;;;;;;4976134;28;20875;-69
2022/10/28 12:01:27;;;;;;;8.93;3.70;;;21.80;99.90;;;;;;4976114;28;20529;-69
2022/10/28 12:04:12;;;;;;;5.53;3.63;;;21.80;99.90;;;;;;4976282;28;20450;-69
2022/10/28 12:06:53;;;;;;;10.27;5.00;;;21.80;99.90;;;;;;4976172;28;20493;-69
2022/10/28 12:09:26;;;;;;;8.83;3.93;;;21.90;99.90;;;;;;4975975;28;20451;-68
2022/10/28 12:12:09;;;;;;;8.70;3.90;;;21.90;99.90;;;;;;4976374;28;20478;-69
2022/10/28 12:14:42;;;;;;;6.80;3.90;;;22.00;99.90;;;;;;4976557;28;20494;-69
2022/10/28 12:17:19;;;;;;;10.40;3.70;;;22.20;99.90;;;;;;4976309;28;20443;-69
2022/10/28 12:19:53;;;;;;;7.20;3.67;;;22.30;99.90;;;;;;4976136;28;20505;-69
2022/10/28 12:22:26;;;;;;;7.37;3.30;;;22.40;99.90;;;;;;4976676;28;20989;-69
2022/10/28 12:24:54;;;;;;;4.97;3.13;;;22.60;99.90;;;;;;4976076;28;20497;-69
2022/10/28 12:27:26;;;;;;;5.03;3.00;;;22.80;99.90;;;;;;4976164;28;20458;-68
2022/10/28 12:29:58;;;;;;;5.00;3.47;;;23.10;99.90;;;;;;4975441;28;20498;-69
2022/10/28 12:32:29;;;;;;;4.50;3.20;;;23.30;99.90;;;;;;4975617;28;20478;-69
2022/10/28 12:35:01;;;;;;;8.37;5.47;;;23.60;99.90;;;;;;4975667;28;20807;-69
2022/10/28 12:37:34;;;;;;;9.57;3.50;;;23.80;99.90;;;;;;4975434;28;20475;-69
2022/10/28 12:40:07;;;;;;;6.57;3.40;;;24.00;99.90;;;;;;4975497;28;20458;-68
2022/10/28 12:42:37;;;;;;;9.03;3.50;;;24.10;99.90;;;;;;4975078;28;20981;-68
2022/10/28 12:45:10;;;;;;;7.70;3.03;;;24.30;99.90;;;;;;4975574;28;20525;-69
2022/10/28 12:47:45;;;;;;;6.60;3.30;;;24.50;99.90;;;;;;4975279;28;20455;-69
2022/10/28 12:50:20;;;;;;;5.63;3.20;;;24.70;99.90;;;;;;4975457;28;20529;-68
2022/10/28 12:52:53;;;;;;;8.30;3.37;;;24.90;99.90;;;;;;4975222;28;20438;-68
2022/10/28 12:55:28;;;;;;;8.57;3.60;;;25.10;99.90;;;;;;4975097;28;20841;-68
2022/10/28 12:58:01;;;;;;;9.73;3.40;;;25.20;99.90;;;;;;4975411;28;20466;-69
2022/10/28 13:00:31;;;;;;;8.90;3.70;;;25.30;99.90;;;;;;4975336;28;20454;-68
2022/10/28 13:03:03;;;;;;;11.00;3.90;;;25.50;99.90;;;;;;4975379;28;20439;-68
2022/10/28 13:05:37;;;;;;;5.93;3.73;;;25.50;99.90;;;;;;4976170;28;20439;-68
2022/10/28 13:08:36;;;;;;;6.83;3.60;;;25.50;99.90;;;;;;4975450;28;20439;-68
2022/10/28 13:11:29;;;;;;;7.10;3.30;;;25.60;99.90;;;;;;4974975;28;20481;-68
2022/10/28 13:14:02;;;;;;;7.20;3.07;;;25.70;99.90;;;;;;4975171;28;20443;-68
2022/10/28 13:16:50;;;;;;;8.77;3.73;;;25.90;99.90;;;;;;4975143;28;20443;-68
2022/10/28 13:19:42;;;;;;;9.50;3.30;;;26.00;99.90;;;;;;4974896;28;20840;-65
2022/10/28 13:22:25;;;;;;;7.90;3.40;;;26.00;99.90;;;;;;4974946;28;20870;-67
2022/10/28 13:25:00;;;;;;;9.40;3.90;;;26.00;99.90;;;;;;4974832;28;20434;-67
2022/10/28 13:27:27;;;;;;;7.60;3.97;;;26.10;99.90;;;;;;4974851;28;20450;-67
2022/10/28 13:29:57;;;;;;;7.47;3.80;;;26.10;99.90;;;;;;4974618;28;20996;-67
2022/10/28 13:32:33;;;;;;;10.27;4.23;;;26.10;99.90;;;;;;4974877;28;20475;-67
2022/10/28 13:35:11;;;;;;;6.20;3.70;;;26.20;99.90;;;;;;4974653;28;20446;-67
2022/10/28 13:37:39;;;;;;;14.80;4.43;;;26.30;99.90;;;;;;4974720;28;20470;-67
2022/10/28 13:40:07;;;;;;;9.23;4.10;;;26.30;99.90;;;;;;4974832;28;20538;-67
2022/10/28 13:42:54;;;;;;;9.20;4.80;;;26.30;99.90;;;;;;4976063;28;20474;-67
2022/10/28 13:45:52;;;;;;;7.00;4.37;;;26.30;99.90;;;;;;4978382;28;20438;-67
2022/10/28 13:48:53;;;;;;;8.03;4.10;;;26.30;99.90;;;;;;4918666;29;20905;-67
2022/10/28 13:51:30;;;;;;;11.87;4.73;;;26.20;99.90;;;;;;4978123;28;20980;-67
2022/10/28 13:53:58;;;;;;;10.13;5.13;;;26.00;99.90;;;;;;4978350;28;20505;-67
2022/10/28 13:56:39;;;;;;;9.50;4.30;;;26.00;99.90;;;;;;4978482;28;20462;-68
2022/10/28 13:59:19;;;;;;;7.13;4.93;;;25.90;99.90;;;;;;4978171;28;20470;-67
2022/10/28 14:01:56;;;;;;;7.37;4.73;;;25.80;99.90;;;;;;4977959;28;20486;-67
2022/10/28 14:04:26;;;;;;;8.10;4.50;;;25.80;99.90;;;;;;4978478;28;20497;-67
2022/10/28 14:07:21;;;;;;;8.30;5.10;;;25.70;99.90;;;;;;4978311;28;20457;-67
2022/10/28 14:09:50;;;;;;;8.10;4.10;;;25.70;99.90;;;;;;4978320;28;20446;-67
2022/10/28 14:12:24;;;;;;;12.17;4.83;;;25.50;99.90;;;;;;4978275;28;20485;-69
2022/10/28 14:14:58;;;;;;;9.20;3.83;;;25.50;99.90;;;;;;4978314;28;20474;-69
2022/10/28 14:17:29;;;;;;;11.57;4.30;;;25.40;99.90;;;;;;4978001;28;20930;-69
2022/10/28 14:19:56;;;;;;;6.03;4.40;;;25.30;99.90;;;;;;4978621;28;20918;-69
2022/10/28 14:22:33;;;;;;;6.17;4.20;;;25.20;99.90;;;;;;4978503;28;20466;-69
2022/10/28 14:25:00;;;;;;;9.90;4.27;;;25.20;99.90;;;;;;4978672;28;20439;-69
2022/10/28 14:27:29;;;;;;;13.37;4.47;;;25.20;99.90;;;;;;4978622;28;20509;-69
2022/10/28 14:30:20;;;;;;;9.17;4.33;;;25.10;99.90;;;;;;4978379;28;20533;-69
2022/10/28 14:33:21;;;;;;;11.90;4.83;;;25.10;99.90;;;;;;4978553;28;20467;-69
2022/10/28 14:35:54;;;;;;;6.30;4.07;;;25.00;99.90;;;;;;4966921;28;20586;-69
2022/10/28 14:38:55;;;;;;;11.90;5.10;;;25.00;99.90;;;;;;4978523;28;20463;-70
2022/10/28 14:41:55;;;;;;;13.10;4.80;;;25.00;99.90;;;;;;4952505;28;20481;-71
2022/10/28 14:44:38;;;;;;;7.87;4.23;;;25.00;99.90;;;;;;4977555;28;20443;-70
2022/10/28 14:47:30;;;;;;;9.80;5.00;;;24.90;99.90;;;;;;4977461;28;20478;-70
2022/10/28 14:50:01;;;;;;;8.70;4.43;;;24.90;99.90;;;;;;4977312;28;20439;-70
2022/10/28 14:52:30;;;;;;;9.70;4.60;;;24.80;99.90;;;;;;4977744;28;20566;-69
2022/10/28 14:55:00;;;;;;;11.80;5.20;;;24.80;99.90;;;;;;4977170;28;20458;-71
2022/10/28 14:57:28;;;;;;;8.13;4.33;;;24.70;99.90;;;;;;4977295;28;20454;-71
2022/10/28 14:59:56;;;;;;;8.90;5.40;;;24.60;99.90;;;;;;4977496;28;20994;-69
2022/10/28 15:02:25;;;;;;;9.23;4.83;;;24.50;99.90;;;;;;4977291;28;20486;-71
2022/10/28 15:05:01;;;;;;;10.10;5.83;;;24.50;99.90;;;;;;4977003;28;20850;-70
2022/10/28 15:07:28;;;;;;;10.33;6.73;;;24.40;99.90;;;;;;4977582;28;20585;-70
2022/10/28 15:09:56;;;;;;;11.87;6.20;;;24.40;99.90;;;;;;4978635;28;20486;-69
2022/10/28 15:12:27;;;;;;;7.87;4.80;;;24.30;99.90;;;;;;4976942;28;21028;-70
2022/10/28 15:14:56;;;;;;;7.50;4.50;;;24.30;99.90;;;;;;4976859;28;20434;-69
2022/10/28 15:17:26;;;;;;;8.30;4.50;;;24.20;99.90;;;;;;4977204;28;20545;-69
2022/10/28 15:19:55;;;;;;;8.10;4.50;;;24.20;99.90;;;;;;4977062;28;20478;-69
2022/10/28 15:22:24;;;;;;;8.80;4.73;;;24.20;99.90;;;;;;4977099;28;20478;-69
2022/10/28 15:24:59;;;;;;;10.50;4.70;;;24.10;99.90;;;;;;4976951;28;20513;-68
2022/10/28 15:27:29;;;;;;;9.10;4.80;;;24.00;99.90;;;;;;4977282;28;20445;-69
2022/10/28 15:29:57;;;;;;;8.97;4.20;;;24.00;99.90;;;;;;4976932;28;20421;-68
2022/10/28 15:32:33;;;;;;;14.20;4.00;;;23.90;99.90;;;;;;4976421;28;20978;-69
2022/10/28 15:35:22;;;;;;;7.30;4.03;;;23.80;99.90;;;;;;4976750;28;20439;-68
2022/10/28 15:37:49;;;;;;;10.20;3.80;;;23.70;99.90;;;;;;4977031;28;20535;-67
2022/10/28 15:40:22;;;;;;;16.00;5.00;;;23.70;99.90;;;;;;4976624;28;20482;-67
2022/10/28 15:42:57;;;;;;;11.37;4.40;;;23.60;99.90;;;;;;4976811;28;20449;-67
2022/10/28 15:45:26;;;;;;;14.20;6.83;;;23.50;99.90;;;;;;4976584;28;20497;-67
2022/10/28 15:47:53;;;;;;;8.37;5.60;;;23.40;99.90;;;;;;4976599;28;20517;-67
2022/10/28 15:50:25;;;;;;;8.10;4.70;;;23.30;99.90;;;;;;4976474;28;20455;-68
2022/10/28 15:52:55;;;;;;;10.73;6.03;;;23.20;99.90;;;;;;4976619;28;20526;-67
2022/10/28 15:55:27;;;;;;;7.80;4.57;;;23.20;99.90;;;;;;4976184;28;20451;-67
2022/10/28 15:57:57;;;;;;;15.40;5.70;;;23.10;99.90;;;;;;4976404;28;20454;-67
2022/10/28 16:00:26;;;;;;;11.17;5.63;;;23.00;99.90;;;;;;4975658;28;20966;-67
2022/10/28 16:02:55;;;;;;;10.60;5.17;;;22.90;99.90;;;;;;4976129;28;20443;-67
2022/10/28 16:05:44;;;;;;;8.70;5.87;;;22.90;99.90;;;;;;4975432;28;20451;-68
2022/10/28 16:08:17;;;;;;;8.83;5.77;;;22.80;99.90;;;;;;4976299;28;20474;-67
2022/10/28 16:10:46;;;;;;;10.40;6.60;;;22.70;99.90;;;;;;4977573;28;20479;-67
2022/10/28 16:13:19;;;;;;;13.40;5.60;;;22.70;99.90;;;;;;4976576;28;20455;-68
2022/10/28 16:15:52;;;;;;;17.30;5.80;;;22.60;99.90;;;;;;4975931;28;20493;-68
2022/10/28 16:18:19;;;;;;;18.07;5.50;;;22.60;99.90;;;;;;4976119;28;20501;-68
2022/10/28 16:20:46;;;;;;;10.10;5.57;;;22.50;99.90;;;;;;4975985;28;20529;-68
2022/10/28 16:23:16;;;;;;;10.50;5.03;;;22.40;99.90;;;;;;4976700;28;20505;-67
2022/10/28 16:25:43;;;;;;;11.43;5.80;;;22.30;99.90;;;;;;4976710;28;20446;-68
2022/10/28 16:28:23;;;;;;;11.40;5.07;;;22.30;99.90;;;;;;4976645;28;20880;-67
2022/10/28 16:30:55;;;;;;;8.63;5.50;;;22.20;99.90;;;;;;4976278;28;20599;-68
2022/10/28 16:33:27;;;;;;;9.30;5.53;;;22.20;99.90;;;;;;4988557;28;20455;-68
2022/10/28 16:35:54;;;;;;;10.63;4.50;;;22.10;99.90;;;;;;4986189;28;20443;-68
2022/10/28 16:38:21;;;;;;;14.37;4.90;;;22.10;99.90;;;;;;4984706;28;20803;-68
2022/10/28 16:40:49;;;;;;;14.47;5.63;;;22.10;99.90;;;;;;4987523;28;20529;-68
2022/10/28 16:43:18;;;;;;;9.47;5.33;;;22.10;99.90;;;;;;4976814;28;20446;-68
2022/10/28 16:45:46;;;;;;;12.90;5.67;;;22.00;99.90;;;;;;4977132;28;20470;-68
2022/10/28 16:48:15;;;;;;;14.07;4.70;;;22.00;99.90;;;;;;4976433;28;20455;-68
2022/10/28 16:50:44;;;;;;;14.43;5.93;;;22.00;99.90;;;;;;4975167;28;20471;-68
2022/10/28 16:53:12;;;;;;;13.43;8.30;;;22.00;99.90;;;;;;4975307;28;20962;-67
2022/10/28 16:55:39;;;;;;;9.47;7.27;;;21.90;99.90;;;;;;4975969;28;20545;-68
2022/10/28 16:58:06;;;;;;;15.27;8.97;;;21.80;99.90;;;;;;4975466;28;20450;-68
2022/10/28 17:00:33;;;;;;;7.67;5.40;;;21.70;99.90;;;;;;4975381;28;20538;-67
2022/10/28 17:03:01;;;;;;;12.50;5.97;;;21.70;99.90;;;;;;4976069;28;20443;-67
2022/10/28 17:05:28;;;;;;;9.27;5.87;;;21.60;99.90;;;;;;4975686;28;20505;-68